Destinations Geneva Cointrin International Airport

Geneva Cointrin International Airport (LSGG / GVA)

Flights to Geneva Cointrin International Airport

Flight number From ETE Dispatch
SPY-106 EHGG Groningen Airport Eelde 01:45
SPY-2244 EGFF Cardiff International Airport 01:50
SPY-2420 EGPH Edinburgh Airport 02:20

Flights from Geneva Cointrin International Airport

Flight number To ETE Dispatch
SPY-107 EHGG Groningen Airport Eelde
SPY-2245 EGFF Cardiff International Airport 01:50
SPY-2421 EGPH Edinburgh Airport 02:20
About

Geneva Cointrin International Airport facts

Geneva Cointrin International Airport is located in Geneva at an elevation of 430.1 meters or 1411 feet.

Currently, Speedy Airlines serves 6 flights to and from Geneva Cointrin International Airport.

Detailed airport info

Route map

Weather

Current weather

METAR

METAR

Metar data retrieved Sunday, 21 July 2024 at 19:25 UTC

LSGG 211850Z AUTO 19007KT 9999 BKN050 24/15 Q1014 NOSIG
Wind Temperature
7 kt 24c